LTAGLCLK

Guest
Details From LTAG - INCIRLIK AB
To LCLK - Larnaca
Flight Number -
Tags generated
Created
Modified
Stats Distance 160 nm / 296 km
Max Altitude 14,000 ft / 4,267 m
Waypoints 3
Social Downloads 4
Likes 0
Share VATSIM

Download

Looking for another format? Having issues loading an existing format? Contact us
Advertisement - Login to hide

Notes

Basic altitude profile: - Ascent Rate: 2500ft/min - Ascent Speed: 250kts - Cruise Altitude: 15000ft - Cruise Speed: 300kts - Descent Rate: 1500ft/min - Descent Speed: 250kts

Route

LTAG VESAR LCLK

ID Type Via Altitude Latitude Longitude Leg Dist Tot Dist Heading (true) Name
O LTAG APT - 0 ft / 0 m 37.00201˚ 35.42581˚ - 0 nm - INCIRLIK AB
VESAR FIX - 14,000 ft / 4,267 m 35.91556˚ 34.01611˚ 94 nm 94 nm 227° / 226° -
O LCLK APT - 0 ft / 0 m 34.87512˚ 33.62483˚ 65 nm 159 nm 197° / 197° Larnaca

Altitude Profile

Advertisement - Login to hide

LTAG

Details ICAO LTAG
Name INCIRLIK AB
Region Turkey
Timezone Europe/Istanbul (UTC+3.0)
Stats Elevation 238 ft / 73 m (AMSL)
Location 37.002008° 35.425810°
Runways 1
Magnetic Variation 5.363° E

METAR

LTAG 182220Z 04004KT CAVOK 12/08 Q1019 NOSIG

Decode

TAF

Not found

Departure Runways

ID Width Length Bearing (true) Bearing (mag) Surface Threshold Offset Overrun Length
05 148 ft / 45 m 9,995 ft / 3,047 m 52.76° 47.40° Concrete 0 ft / 0 m 484 ft / 148 m
23 148 ft / 45 m 9,995 ft / 3,047 m 232.78° 227.42° Concrete 0 ft / 0 m 540 ft / 165 m

LCLK

Details ICAO LCLK (LCA)
Name Larnaca
Region Cyprus
Timezone Asia/Nicosia (UTC+2.0)
Stats Elevation 8 ft / 2 m (AMSL)
Location 34.875115° 33.624832°
Runways 1
Magnetic Variation 4.991° E

METAR

LCLK 182230Z VRB02KT 8000 -SHRA FEW020 17/16 Q1019 NOSIG

Decode

TAF

TAF LCLK 181730Z 1818/1918 32006KT 9999 FEW020 SCT060 PROB30 1901/1904 5000 BR BECMG 1906/1909 35010KT BECMG 1907/1910 05009KT

Decode

Destination Runways

ID Width Length Bearing (true) Bearing (mag) Surface Threshold Offset Overrun Length
04 148 ft / 45 m 9,771 ft / 2,978 m 45.15° 40.16° Asphalt 0 ft / 0 m 210 ft / 64 m
22 148 ft / 45 m 9,771 ft / 2,978 m 225.17° 220.18° Asphalt 575 ft / 175 m 0 ft / 0 m

Approach Navaids

Runway Type Ident Frequency Range Bearing (true) Bearing (mag) Slope Elevation
22 Localiser ILC 110.30 MHz 18 nm / 33 km 225.17° 220.18° - 8 ft / 2 m (AMSL)
22 Glidescope ILC 110.30 MHz 10 nm / 19 km 225.16° 220.17° 2.75° 24 ft / 7 m (AMSL)
22 DME ILC 110.30 MHz 18 nm / 33 km - - - 20 ft / 6 m (AMSL)